sensor_id;sensor_type;location;lat;lon;timestamp;P1;durP1;ratioP1;P2;durP2;ratioP2
42770;SDS011;28426;42.872;25.314;2022-11-04T00:00:33;18.10;;;10.27;;
42770;SDS011;28426;42.872;25.314;2022-11-04T00:03:04;19.80;;;11.65;;
42770;SDS011;28426;42.872;25.314;2022-11-04T00:05:35;19.02;;;11.43;;
42770;SDS011;28426;42.872;25.314;2022-11-04T00:08:09;24.15;;;11.50;;
42770;SDS011;28426;42.872;25.314;2022-11-04T00:10:54;18.65;;;9.98;;
42770;SDS011;28426;42.872;25.314;2022-11-04T00:13:38;20.48;;;11.02;;
42770;SDS011;28426;42.872;25.314;2022-11-04T00:16:09;27.33;;;12.20;;
42770;SDS011;28426;42.872;25.314;2022-11-04T00:18:52;19.92;;;10.73;;
42770;SDS011;28426;42.872;25.314;2022-11-04T00:21:23;22.17;;;10.25;;
42770;SDS011;28426;42.872;25.314;2022-11-04T00:24:10;20.50;;;10.65;;
42770;SDS011;28426;42.872;25.314;2022-11-04T00:26:53;18.05;;;10.18;;
42770;SDS011;28426;42.872;25.314;2022-11-04T00:29:37;18.83;;;11.32;;
42770;SDS011;28426;42.872;25.314;2022-11-04T00:32:07;19.45;;;10.80;;
42770;SDS011;28426;42.872;25.314;2022-11-04T00:34:50;25.67;;;11.85;;
42770;SDS011;28426;42.872;25.314;2022-11-04T00:37:21;17.85;;;9.63;;
42770;SDS011;28426;42.872;25.314;2022-11-04T00:39:54;18.33;;;9.50;;
42770;SDS011;28426;42.872;25.314;2022-11-04T00:42:25;16.27;;;9.15;;
42770;SDS011;28426;42.872;25.314;2022-11-04T00:44:55;14.23;;;9.05;;
42770;SDS011;28426;42.872;25.314;2022-11-04T00:47:26;17.80;;;9.82;;
42770;SDS011;28426;42.872;25.314;2022-11-04T00:49:56;15.50;;;9.18;;
42770;SDS011;28426;42.872;25.314;2022-11-04T00:52:28;19.13;;;10.18;;
42770;SDS011;28426;42.872;25.314;2022-11-04T00:55:02;16.33;;;9.32;;
42770;SDS011;28426;42.872;25.314;2022-11-04T00:57:33;16.17;;;9.27;;
42770;SDS011;28426;42.872;25.314;2022-11-04T01:00:04;17.98;;;8.82;;
42770;SDS011;28426;42.872;25.314;2022-11-04T01:02:35;16.65;;;9.48;;
42770;SDS011;28426;42.872;25.314;2022-11-04T01:05:06;18.98;;;9.52;;
42770;SDS011;28426;42.872;25.314;2022-11-04T01:07:37;17.85;;;9.80;;
42770;SDS011;28426;42.872;25.314;2022-11-04T01:10:12;17.48;;;9.55;;
42770;SDS011;28426;42.872;25.314;2022-11-04T01:12:43;16.70;;;9.30;;
42770;SDS011;28426;42.872;25.314;2022-11-04T01:15:13;14.57;;;8.57;;
42770;SDS011;28426;42.872;25.314;2022-11-04T01:17:44;16.77;;;10.18;;
42770;SDS011;28426;42.872;25.314;2022-11-04T01:20:14;16.27;;;9.10;;
42770;SDS011;28426;42.872;25.314;2022-11-04T01:22:46;16.13;;;9.98;;
42770;SDS011;28426;42.872;25.314;2022-11-04T01:25:19;17.88;;;9.48;;
42770;SDS011;28426;42.872;25.314;2022-11-04T01:27:50;18.67;;;10.02;;
42770;SDS011;28426;42.872;25.314;2022-11-04T01:30:20;17.88;;;10.55;;
42770;SDS011;28426;42.872;25.314;2022-11-04T01:32:51;22.85;;;13.55;;
42770;SDS011;28426;42.872;25.314;2022-11-04T01:35:22;23.27;;;14.60;;
42770;SDS011;28426;42.872;25.314;2022-11-04T01:37:53;26.77;;;14.77;;
42770;SDS011;28426;42.872;25.314;2022-11-04T01:40:26;22.48;;;12.43;;
42770;SDS011;28426;42.872;25.314;2022-11-04T01:42:57;24.75;;;13.05;;
42770;SDS011;28426;42.872;25.314;2022-11-04T01:45:27;24.52;;;15.13;;
42770;SDS011;28426;42.872;25.314;2022-11-04T01:47:59;22.67;;;13.55;;
42770;SDS011;28426;42.872;25.314;2022-11-04T01:50:32;26.63;;;16.38;;
42770;SDS011;28426;42.872;25.314;2022-11-04T01:53:06;27.20;;;15.63;;
42770;SDS011;28426;42.872;25.314;2022-11-04T01:55:45;19.83;;;12.20;;
42770;SDS011;28426;42.872;25.314;2022-11-04T01:58:21;25.75;;;14.07;;
42770;SDS011;28426;42.872;25.314;2022-11-04T02:00:53;29.65;;;17.40;;
42770;SDS011;28426;42.872;25.314;2022-11-04T02:03:25;23.92;;;14.52;;
42770;SDS011;28426;42.872;25.314;2022-11-04T02:05:58;26.95;;;14.80;;
42770;SDS011;28426;42.872;25.314;2022-11-04T02:08:31;23.75;;;14.32;;
42770;SDS011;28426;42.872;25.314;2022-11-04T02:11:05;26.08;;;15.75;;
42770;SDS011;28426;42.872;25.314;2022-11-04T02:13:37;26.55;;;15.25;;
42770;SDS011;28426;42.872;25.314;2022-11-04T02:16:07;28.23;;;13.02;;
42770;SDS011;28426;42.872;25.314;2022-11-04T02:18:47;24.15;;;15.32;;
42770;SDS011;28426;42.872;25.314;2022-11-04T02:24:41;26.58;;;16.20;;
42770;SDS011;28426;42.872;25.314;2022-11-04T02:27:44;25.98;;;14.45;;
42770;SDS011;28426;42.872;25.314;2022-11-04T02:30:31;30.10;;;14.70;;
42770;SDS011;28426;42.872;25.314;2022-11-04T02:33:09;34.58;;;15.82;;
42770;SDS011;28426;42.872;25.314;2022-11-04T02:35:50;26.60;;;16.33;;
42770;SDS011;28426;42.872;25.314;2022-11-04T02:38:31;30.58;;;14.18;;
42770;SDS011;28426;42.872;25.314;2022-11-04T02:41:11;29.83;;;14.85;;
42770;SDS011;28426;42.872;25.314;2022-11-04T02:43:47;26.65;;;15.50;;
42770;SDS011;28426;42.872;25.314;2022-11-04T02:46:30;25.58;;;13.75;;
42770;SDS011;28426;42.872;25.314;2022-11-04T02:49:06;24.55;;;14.73;;
42770;SDS011;28426;42.872;25.314;2022-11-04T02:51:42;24.33;;;14.02;;
42770;SDS011;28426;42.872;25.314;2022-11-04T02:54:19;25.58;;;14.88;;
42770;SDS011;28426;42.872;25.314;2022-11-04T02:56:53;24.65;;;14.48;;
42770;SDS011;28426;42.872;25.314;2022-11-04T02:59:28;23.98;;;13.82;;
42770;SDS011;28426;42.872;25.314;2022-11-04T03:02:07;27.55;;;14.57;;
42770;SDS011;28426;42.872;25.314;2022-11-04T03:04:44;30.88;;;15.30;;
42770;SDS011;28426;42.872;25.314;2022-11-04T03:07:20;24.38;;;13.95;;
42770;SDS011;28426;42.872;25.314;2022-11-04T03:12:30;24.55;;;13.43;;
42770;SDS011;28426;42.872;25.314;2022-11-04T03:15:08;24.10;;;14.80;;
42770;SDS011;28426;42.872;25.314;2022-11-04T03:17:49;28.88;;;14.48;;
42770;SDS011;28426;42.872;25.314;2022-11-04T03:20:24;28.98;;;14.18;;
42770;SDS011;28426;42.872;25.314;2022-11-04T03:22:57;44.75;;;15.63;;
42770;SDS011;28426;42.872;25.314;2022-11-04T03:25:29;35.30;;;14.23;;
42770;SDS011;28426;42.872;25.314;2022-11-04T03:28:10;28.05;;;13.57;;
42770;SDS011;28426;42.872;25.314;2022-11-04T03:30:50;30.67;;;13.68;;
42770;SDS011;28426;42.872;25.314;2022-11-04T03:33:29;27.58;;;12.80;;
42770;SDS011;28426;42.872;25.314;2022-11-04T03:36:08;22.92;;;12.05;;
42770;SDS011;28426;42.872;25.314;2022-11-04T03:38:38;21.30;;;11.38;;
42770;SDS011;28426;42.872;25.314;2022-11-04T03:41:11;23.10;;;12.70;;
42770;SDS011;28426;42.872;25.314;2022-11-04T03:43:44;22.90;;;11.55;;
42770;SDS011;28426;42.872;25.314;2022-11-04T03:46:14;20.95;;;11.55;;
42770;SDS011;28426;42.872;25.314;2022-11-04T03:48:48;24.08;;;12.32;;
42770;SDS011;28426;42.872;25.314;2022-11-04T03:51:21;23.52;;;11.98;;
42770;SDS011;28426;42.872;25.314;2022-11-04T03:53:51;23.17;;;11.52;;
42770;SDS011;28426;42.872;25.314;2022-11-04T03:56:26;19.83;;;11.15;;
42770;SDS011;28426;42.872;25.314;2022-11-04T03:59:15;18.67;;;11.63;;
42770;SDS011;28426;42.872;25.314;2022-11-04T04:02:01;26.40;;;11.55;;
42770;SDS011;28426;42.872;25.314;2022-11-04T04:04:43;20.00;;;11.40;;
42770;SDS011;28426;42.872;25.314;2022-11-04T04:07:20;22.42;;;11.68;;
42770;SDS011;28426;42.872;25.314;2022-11-04T04:10:00;26.20;;;12.85;;
42770;SDS011;28426;42.872;25.314;2022-11-04T04:12:59;21.13;;;10.90;;
42770;SDS011;28426;42.872;25.314;2022-11-04T04:15:33;27.30;;;12.50;;
42770;SDS011;28426;42.872;25.314;2022-11-04T04:18:12;25.98;;;13.70;;
42770;SDS011;28426;42.872;25.314;2022-11-04T04:20:46;29.65;;;13.27;;
42770;SDS011;28426;42.872;25.314;2022-11-04T04:23:22;22.25;;;11.55;;
42770;SDS011;28426;42.872;25.314;2022-11-04T04:26:08;20.48;;;9.75;;
42770;SDS011;28426;42.872;25.314;2022-11-04T04:28:53;20.97;;;9.33;;
42770;SDS011;28426;42.872;25.314;2022-11-04T04:31:28;19.53;;;9.20;;
42770;SDS011;28426;42.872;25.314;2022-11-04T04:34:12;19.15;;;8.95;;
42770;SDS011;28426;42.872;25.314;2022-11-04T04:36:48;17.80;;;10.98;;
42770;SDS011;28426;42.872;25.314;2022-11-04T04:39:22;23.48;;;9.55;;
42770;SDS011;28426;42.872;25.314;2022-11-04T04:42:09;18.60;;;9.60;;
42770;SDS011;28426;42.872;25.314;2022-11-04T04:44:52;34.28;;;11.20;;
42770;SDS011;28426;42.872;25.314;2022-11-04T04:47:33;39.47;;;11.57;;
42770;SDS011;28426;42.872;25.314;2022-11-04T04:50:08;19.20;;;9.60;;
42770;SDS011;28426;42.872;25.314;2022-11-04T04:52:43;20.67;;;9.90;;
42770;SDS011;28426;42.872;25.314;2022-11-04T04:55:15;21.48;;;10.30;;
42770;SDS011;28426;42.872;25.314;2022-11-04T04:57:46;28.55;;;11.70;;
42770;SDS011;28426;42.872;25.314;2022-11-04T05:00:17;48.10;;;14.27;;
42770;SDS011;28426;42.872;25.314;2022-11-04T05:02:50;33.88;;;15.65;;
42770;SDS011;28426;42.872;25.314;2022-11-04T05:05:20;37.55;;;13.85;;
42770;SDS011;28426;42.872;25.314;2022-11-04T05:07:53;42.45;;;14.75;;
42770;SDS011;28426;42.872;25.314;2022-11-04T05:10:24;31.50;;;13.23;;
42770;SDS011;28426;42.872;25.314;2022-11-04T05:12:54;30.63;;;14.55;;
42770;SDS011;28426;42.872;25.314;2022-11-04T05:15:37;25.55;;;11.27;;
42770;SDS011;28426;42.872;25.314;2022-11-04T05:18:08;23.38;;;11.80;;
42770;SDS011;28426;42.872;25.314;2022-11-04T05:20:38;24.55;;;10.98;;
42770;SDS011;28426;42.872;25.314;2022-11-04T05:23:11;21.27;;;10.68;;
42770;SDS011;28426;42.872;25.314;2022-11-04T05:25:42;31.60;;;12.88;;
42770;SDS011;28426;42.872;25.314;2022-11-04T05:28:13;31.58;;;12.30;;
42770;SDS011;28426;42.872;25.314;2022-11-04T05:30:43;24.17;;;11.77;;
42770;SDS011;28426;42.872;25.314;2022-11-04T05:33:14;31.38;;;14.38;;
42770;SDS011;28426;42.872;25.314;2022-11-04T05:35:44;28.33;;;13.98;;
42770;SDS011;28426;42.872;25.314;2022-11-04T05:38:17;26.10;;;15.13;;
42770;SDS011;28426;42.872;25.314;2022-11-04T05:40:48;32.55;;;13.77;;
42770;SDS011;28426;42.872;25.314;2022-11-04T05:43:18;34.95;;;14.65;;
42770;SDS011;28426;42.872;25.314;2022-11-04T05:45:51;39.50;;;14.50;;
42770;SDS011;28426;42.872;25.314;2022-11-04T05:48:22;36.80;;;14.85;;
42770;SDS011;28426;42.872;25.314;2022-11-04T05:50:53;37.85;;;15.43;;
42770;SDS011;28426;42.872;25.314;2022-11-04T05:53:26;36.58;;;14.80;;
42770;SDS011;28426;42.872;25.314;2022-11-04T05:55:57;30.38;;;15.52;;
42770;SDS011;28426;42.872;25.314;2022-11-04T05:58:27;50.28;;;17.10;;
42770;SDS011;28426;42.872;25.314;2022-11-04T06:01:09;37.47;;;15.05;;
42770;SDS011;28426;42.872;25.314;2022-11-04T06:03:41;33.22;;;15.00;;
42770;SDS011;28426;42.872;25.314;2022-11-04T06:06:11;30.80;;;14.38;;
42770;SDS011;28426;42.872;25.314;2022-11-04T06:08:45;33.78;;;15.15;;
42770;SDS011;28426;42.872;25.314;2022-11-04T06:11:15;33.10;;;14.50;;
42770;SDS011;28426;42.872;25.314;2022-11-04T06:13:46;28.35;;;13.82;;
42770;SDS011;28426;42.872;25.314;2022-11-04T06:16:17;26.17;;;13.52;;
42770;SDS011;28426;42.872;25.314;2022-11-04T06:18:47;25.73;;;13.65;;
42770;SDS011;28426;42.872;25.314;2022-11-04T06:21:19;27.85;;;14.02;;
42770;SDS011;28426;42.872;25.314;2022-11-04T06:23:55;27.63;;;14.05;;
42770;SDS011;28426;42.872;25.314;2022-11-04T06:26:28;25.52;;;14.00;;
42770;SDS011;28426;42.872;25.314;2022-11-04T06:28:59;31.63;;;14.77;;
42770;SDS011;28426;42.872;25.314;2022-11-04T06:31:30;26.27;;;14.00;;
42770;SDS011;28426;42.872;25.314;2022-11-04T06:34:00;33.08;;;14.40;;
42770;SDS011;28426;42.872;25.314;2022-11-04T06:36:31;28.40;;;13.43;;
42770;SDS011;28426;42.872;25.314;2022-11-04T06:39:05;28.75;;;14.00;;
42770;SDS011;28426;42.872;25.314;2022-11-04T06:41:35;31.40;;;15.02;;
42770;SDS011;28426;42.872;25.314;2022-11-04T06:44:09;26.23;;;12.73;;
42770;SDS011;28426;42.872;25.314;2022-11-04T06:46:40;27.85;;;13.32;;
42770;SDS011;28426;42.872;25.314;2022-11-04T06:49:12;37.67;;;13.25;;
42770;SDS011;28426;42.872;25.314;2022-11-04T06:51:44;27.38;;;11.85;;
42770;SDS011;28426;42.872;25.314;2022-11-04T06:54:18;28.25;;;12.32;;
42770;SDS011;28426;42.872;25.314;2022-11-04T06:56:49;28.48;;;12.32;;
42770;SDS011;28426;42.872;25.314;2022-11-04T06:59:19;26.85;;;12.32;;
42770;SDS011;28426;42.872;25.314;2022-11-04T07:01:50;29.45;;;12.60;;
42770;SDS011;28426;42.872;25.314;2022-11-04T07:04:21;37.25;;;19.13;;
42770;SDS011;28426;42.872;25.314;2022-11-04T07:06:51;38.63;;;17.80;;
42770;SDS011;28426;42.872;25.314;2022-11-04T07:09:25;31.10;;;13.63;;
42770;SDS011;28426;42.872;25.314;2022-11-04T07:11:55;26.75;;;12.48;;
42770;SDS011;28426;42.872;25.314;2022-11-04T07:14:26;32.58;;;15.00;;
42770;SDS011;28426;42.872;25.314;2022-11-04T07:16:57;29.83;;;14.02;;
42770;SDS011;28426;42.872;25.314;2022-11-04T07:19:28;39.33;;;21.13;;
42770;SDS011;28426;42.872;25.314;2022-11-04T07:21:58;34.50;;;15.00;;
42770;SDS011;28426;42.872;25.314;2022-11-04T07:24:31;25.10;;;13.57;;
42770;SDS011;28426;42.872;25.314;2022-11-04T07:27:02;23.52;;;12.50;;
42770;SDS011;28426;42.872;25.314;2022-11-04T07:29:33;24.83;;;11.70;;
42770;SDS011;28426;42.872;25.314;2022-11-04T07:32:04;26.25;;;10.88;;
42770;SDS011;28426;42.872;25.314;2022-11-04T07:34:35;25.73;;;10.30;;
42770;SDS011;28426;42.872;25.314;2022-11-04T07:37:06;21.02;;;9.60;;
42770;SDS011;28426;42.872;25.314;2022-11-04T07:39:39;22.00;;;9.40;;
42770;SDS011;28426;42.872;25.314;2022-11-04T07:42:09;20.48;;;8.95;;
42770;SDS011;28426;42.872;25.314;2022-11-04T07:44:40;20.83;;;10.05;;
42770;SDS011;28426;42.872;25.314;2022-11-04T07:47:11;20.13;;;8.65;;
42770;SDS011;28426;42.872;25.314;2022-11-04T07:49:41;18.60;;;8.68;;
42770;SDS011;28426;42.872;25.314;2022-11-04T07:52:12;16.65;;;8.55;;
42770;SDS011;28426;42.872;25.314;2022-11-04T07:54:45;22.35;;;9.32;;
42770;SDS011;28426;42.872;25.314;2022-11-04T07:57:15;18.60;;;8.57;;
42770;SDS011;28426;42.872;25.314;2022-11-04T07:59:46;21.95;;;9.07;;
42770;SDS011;28426;42.872;25.314;2022-11-04T08:02:17;19.25;;;8.60;;
42770;SDS011;28426;42.872;25.314;2022-11-04T08:04:54;17.58;;;8.63;;
42770;SDS011;28426;42.872;25.314;2022-11-04T08:07:24;18.75;;;9.60;;
42770;SDS011;28426;42.872;25.314;2022-11-04T08:09:58;16.08;;;8.25;;
42770;SDS011;28426;42.872;25.314;2022-11-04T08:12:28;18.92;;;8.13;;
42770;SDS011;28426;42.872;25.314;2022-11-04T08:14:59;22.58;;;8.00;;
42770;SDS011;28426;42.872;25.314;2022-11-04T08:17:30;19.50;;;9.05;;
42770;SDS011;28426;42.872;25.314;2022-11-04T08:20:00;19.83;;;7.97;;
42770;SDS011;28426;42.872;25.314;2022-11-04T08:22:31;25.42;;;8.30;;
42770;SDS011;28426;42.872;25.314;2022-11-04T08:25:06;16.08;;;8.10;;
42770;SDS011;28426;42.872;25.314;2022-11-04T08:27:39;23.08;;;9.10;;
42770;SDS011;28426;42.872;25.314;2022-11-04T08:30:10;21.30;;;7.90;;
42770;SDS011;28426;42.872;25.314;2022-11-04T08:32:41;18.15;;;8.93;;
42770;SDS011;28426;42.872;25.314;2022-11-04T08:35:12;15.50;;;7.20;;
42770;SDS011;28426;42.872;25.314;2022-11-04T08:37:42;18.48;;;7.68;;
42770;SDS011;28426;42.872;25.314;2022-11-04T08:40:16;18.88;;;7.95;;
42770;SDS011;28426;42.872;25.314;2022-11-04T08:42:46;15.85;;;7.93;;
42770;SDS011;28426;42.872;25.314;2022-11-04T08:45:17;18.17;;;7.85;;
42770;SDS011;28426;42.872;25.314;2022-11-04T08:47:48;24.85;;;8.23;;
42770;SDS011;28426;42.872;25.314;2022-11-04T08:50:19;18.58;;;8.75;;
42770;SDS011;28426;42.872;25.314;2022-11-04T08:52:53;30.75;;;10.77;;
42770;SDS011;28426;42.872;25.314;2022-11-04T08:55:27;16.50;;;8.05;;
42770;SDS011;28426;42.872;25.314;2022-11-04T08:57:57;20.70;;;8.65;;
42770;SDS011;28426;42.872;25.314;2022-11-04T09:00:29;16.02;;;7.28;;
42770;SDS011;28426;42.872;25.314;2022-11-04T09:02:59;14.77;;;7.97;;
42770;SDS011;28426;42.872;25.314;2022-11-04T09:05:30;20.42;;;8.57;;
42770;SDS011;28426;42.872;25.314;2022-11-04T09:08:01;19.85;;;8.48;;
42770;SDS011;28426;42.872;25.314;2022-11-04T09:10:34;13.50;;;7.25;;
42770;SDS011;28426;42.872;25.314;2022-11-04T09:13:05;17.23;;;7.30;;
42770;SDS011;28426;42.872;25.314;2022-11-04T09:15:37;20.02;;;7.97;;
42770;SDS011;28426;42.872;25.314;2022-11-04T09:18:07;20.73;;;7.30;;
42770;SDS011;28426;42.872;25.314;2022-11-04T09:20:38;22.67;;;8.02;;
42770;SDS011;28426;42.872;25.314;2022-11-04T09:23:09;18.48;;;8.20;;
42770;SDS011;28426;42.872;25.314;2022-11-04T09:25:42;15.73;;;7.95;;
42770;SDS011;28426;42.872;25.314;2022-11-04T09:28:13;22.05;;;8.07;;
42770;SDS011;28426;42.872;25.314;2022-11-04T09:30:43;22.35;;;7.53;;
42770;SDS011;28426;42.872;25.314;2022-11-04T09:33:14;18.33;;;7.60;;
42770;SDS011;28426;42.872;25.314;2022-11-04T09:35:52;17.05;;;7.90;;
42770;SDS011;28426;42.872;25.314;2022-11-04T09:38:24;40.88;;;9.38;;
42770;SDS011;28426;42.872;25.314;2022-11-04T09:40:58;17.83;;;7.30;;
42770;SDS011;28426;42.872;25.314;2022-11-04T09:43:32;18.58;;;7.55;;
42770;SDS011;28426;42.872;25.314;2022-11-04T09:46:12;17.67;;;7.85;;
42770;SDS011;28426;42.872;25.314;2022-11-04T09:48:44;18.58;;;7.68;;
42770;SDS011;28426;42.872;25.314;2022-11-04T09:51:20;20.17;;;7.85;;
42770;SDS011;28426;42.872;25.314;2022-11-04T09:54:15;16.58;;;7.13;;
42770;SDS011;28426;42.872;25.314;2022-11-04T09:56:52;19.45;;;7.78;;
42770;SDS011;28426;42.872;25.314;2022-11-04T09:59:28;20.63;;;9.60;;
42770;SDS011;28426;42.872;25.314;2022-11-04T10:02:04;18.57;;;8.23;;
42770;SDS011;28426;42.872;25.314;2022-11-04T10:04:51;16.10;;;7.82;;
42770;SDS011;28426;42.872;25.314;2022-11-04T10:07:37;19.37;;;7.20;;
42770;SDS011;28426;42.872;25.314;2022-11-04T10:10:19;20.90;;;8.15;;
42770;SDS011;28426;42.872;25.314;2022-11-04T10:13:05;16.98;;;7.15;;
42770;SDS011;28426;42.872;25.314;2022-11-04T10:15:48;14.95;;;8.00;;
42770;SDS011;28426;42.872;25.314;2022-11-04T10:18:34;14.35;;;7.18;;
42770;SDS011;28426;42.872;25.314;2022-11-04T10:21:17;14.43;;;7.53;;
42770;SDS011;28426;42.872;25.314;2022-11-04T10:24:04;16.13;;;7.25;;
42770;SDS011;28426;42.872;25.314;2022-11-04T10:26:43;13.23;;;6.67;;
42770;SDS011;28426;42.872;25.314;2022-11-04T10:29:20;16.05;;;7.20;;
42770;SDS011;28426;42.872;25.314;2022-11-04T10:31:58;21.70;;;8.00;;
42770;SDS011;28426;42.872;25.314;2022-11-04T10:34:33;18.08;;;7.55;;
42770;SDS011;28426;42.872;25.314;2022-11-04T10:37:08;17.27;;;7.75;;
42770;SDS011;28426;42.872;25.314;2022-11-04T10:39:42;15.80;;;7.60;;
42770;SDS011;28426;42.872;25.314;2022-11-04T10:42:15;19.50;;;7.68;;
42770;SDS011;28426;42.872;25.314;2022-11-04T10:44:51;17.35;;;7.18;;
42770;SDS011;28426;42.872;25.314;2022-11-04T10:47:26;19.52;;;8.10;;
42770;SDS011;28426;42.872;25.314;2022-11-04T10:50:15;11.95;;;6.65;;
42770;SDS011;28426;42.872;25.314;2022-11-04T10:53:01;16.77;;;7.50;;
42770;SDS011;28426;42.872;25.314;2022-11-04T10:55:41;19.20;;;7.45;;
42770;SDS011;28426;42.872;25.314;2022-11-04T10:58:21;18.17;;;8.10;;
42770;SDS011;28426;42.872;25.314;2022-11-04T11:01:01;15.90;;;8.07;;
42770;SDS011;28426;42.872;25.314;2022-11-04T11:03:53;14.95;;;7.82;;
42770;SDS011;28426;42.872;25.314;2022-11-04T11:06:24;20.77;;;8.80;;
42770;SDS011;28426;42.872;25.314;2022-11-04T11:08:57;22.10;;;9.07;;
42770;SDS011;28426;42.872;25.314;2022-11-04T11:11:38;22.25;;;8.50;;
42770;SDS011;28426;42.872;25.314;2022-11-04T11:14:17;14.02;;;7.80;;
42770;SDS011;28426;42.872;25.314;2022-11-04T11:16:51;16.30;;;7.82;;
42770;SDS011;28426;42.872;25.314;2022-11-04T11:19:22;20.05;;;7.85;;
42770;SDS011;28426;42.872;25.314;2022-11-04T11:21:57;17.73;;;7.88;;
42770;SDS011;28426;42.872;25.314;2022-11-04T11:24:28;19.05;;;7.90;;
42770;SDS011;28426;42.872;25.314;2022-11-04T11:27:01;19.45;;;7.53;;
42770;SDS011;28426;42.872;25.314;2022-11-04T11:29:42;15.82;;;7.30;;
42770;SDS011;28426;42.872;25.314;2022-11-04T11:32:26;23.80;;;12.45;;
42770;SDS011;28426;42.872;25.314;2022-11-04T11:35:01;19.00;;;8.25;;
42770;SDS011;28426;42.872;25.314;2022-11-04T11:37:37;15.15;;;7.07;;
42770;SDS011;28426;42.872;25.314;2022-11-04T11:40:21;18.27;;;7.22;;
42770;SDS011;28426;42.872;25.314;2022-11-04T11:42:58;24.67;;;9.10;;
42770;SDS011;28426;42.872;25.314;2022-11-04T11:45:29;17.42;;;7.25;;
42770;SDS011;28426;42.872;25.314;2022-11-04T11:48:08;22.25;;;8.05;;
42770;SDS011;28426;42.872;25.314;2022-11-04T11:50:58;18.05;;;7.78;;
42770;SDS011;28426;42.872;25.314;2022-11-04T11:53:29;20.27;;;8.98;;
42770;SDS011;28426;42.872;25.314;2022-11-04T11:56:03;18.05;;;8.40;;
42770;SDS011;28426;42.872;25.314;2022-11-04T11:59:15;13.27;;;7.28;;
42770;SDS011;28426;42.872;25.314;2022-11-04T12:02:25;17.90;;;7.72;;
42770;SDS011;28426;42.872;25.314;2022-11-04T12:05:04;18.05;;;7.50;;
42770;SDS011;28426;42.872;25.314;2022-11-04T12:08:00;20.63;;;7.38;;
42770;SDS011;28426;42.872;25.314;2022-11-04T12:11:06;20.48;;;12.40;;
42770;SDS011;28426;42.872;25.314;2022-11-04T12:13:45;13.68;;;7.30;;
42770;SDS011;28426;42.872;25.314;2022-11-04T12:16:25;18.35;;;6.97;;
42770;SDS011;28426;42.872;25.314;2022-11-04T12:19:06;15.48;;;6.95;;
42770;SDS011;28426;42.872;25.314;2022-11-04T12:21:53;13.20;;;7.05;;
42770;SDS011;28426;42.872;25.314;2022-11-04T12:24:31;14.55;;;7.03;;
42770;SDS011;28426;42.872;25.314;2022-11-04T12:27:10;18.00;;;7.10;;
42770;SDS011;28426;42.872;25.314;2022-11-04T12:29:51;18.15;;;7.10;;
42770;SDS011;28426;42.872;25.314;2022-11-04T12:32:34;16.50;;;7.88;;
42770;SDS011;28426;42.872;25.314;2022-11-04T12:35:35;18.27;;;7.05;;
42770;SDS011;28426;42.872;25.314;2022-11-04T12:38:30;17.25;;;6.85;;
42770;SDS011;28426;42.872;25.314;2022-11-04T12:41:11;16.85;;;7.32;;
42770;SDS011;28426;42.872;25.314;2022-11-04T12:44:14;20.20;;;8.10;;
42770;SDS011;28426;42.872;25.314;2022-11-04T12:46:56;20.92;;;7.35;;
42770;SDS011;28426;42.872;25.314;2022-11-04T12:52:55;14.13;;;6.82;;
42770;SDS011;28426;42.872;25.314;2022-11-04T12:55:52;15.70;;;6.75;;
42770;SDS011;28426;42.872;25.314;2022-11-04T12:58:37;14.73;;;6.72;;
42770;SDS011;28426;42.872;25.314;2022-11-04T13:01:29;14.35;;;7.10;;
42770;SDS011;28426;42.872;25.314;2022-11-04T13:04:05;16.08;;;7.70;;
42770;SDS011;28426;42.872;25.314;2022-11-04T13:06:42;17.00;;;7.50;;
42770;SDS011;28426;42.872;25.314;2022-11-04T13:09:19;15.02;;;7.00;;
42770;SDS011;28426;42.872;25.314;2022-11-04T13:12:02;14.57;;;7.13;;
42770;SDS011;28426;42.872;25.314;2022-11-04T13:14:39;22.20;;;7.55;;
42770;SDS011;28426;42.872;25.314;2022-11-04T13:17:17;17.98;;;7.38;;
42770;SDS011;28426;42.872;25.314;2022-11-04T13:19:52;19.02;;;7.35;;
42770;SDS011;28426;42.872;25.314;2022-11-04T13:22:25;14.70;;;7.13;;
42770;SDS011;28426;42.872;25.314;2022-11-04T13:25:00;19.23;;;7.63;;
42770;SDS011;28426;42.872;25.314;2022-11-04T13:30:16;16.80;;;6.60;;
42770;SDS011;28426;42.872;25.314;2022-11-04T13:32:52;16.15;;;7.15;;
42770;SDS011;28426;42.872;25.314;2022-11-04T13:35:30;15.45;;;7.55;;
42770;SDS011;28426;42.872;25.314;2022-11-04T13:38:09;12.10;;;7.55;;
42770;SDS011;28426;42.872;25.314;2022-11-04T13:40:47;14.82;;;7.10;;
42770;SDS011;28426;42.872;25.314;2022-11-04T13:43:39;18.83;;;7.28;;
42770;SDS011;28426;42.872;25.314;2022-11-04T13:46:17;15.50;;;7.03;;
42770;SDS011;28426;42.872;25.314;2022-11-04T13:49:00;15.15;;;8.00;;
42770;SDS011;28426;42.872;25.314;2022-11-04T13:51:35;16.08;;;7.57;;
42770;SDS011;28426;42.872;25.314;2022-11-04T13:54:22;14.88;;;7.68;;
42770;SDS011;28426;42.872;25.314;2022-11-04T13:57:06;16.33;;;7.47;;
42770;SDS011;28426;42.872;25.314;2022-11-04T13:59:42;17.58;;;7.82;;
42770;SDS011;28426;42.872;25.314;2022-11-04T14:02:48;15.40;;;8.35;;
42770;SDS011;28426;42.872;25.314;2022-11-04T14:08:34;16.20;;;8.00;;
42770;SDS011;28426;42.872;25.314;2022-11-04T14:11:08;17.15;;;8.77;;
42770;SDS011;28426;42.872;25.314;2022-11-04T14:13:59;23.15;;;8.60;;
42770;SDS011;28426;42.872;25.314;2022-11-04T14:16:41;18.02;;;8.50;;
42770;SDS011;28426;42.872;25.314;2022-11-04T14:22:31;17.35;;;9.50;;
42770;SDS011;28426;42.872;25.314;2022-11-04T14:25:17;19.85;;;8.63;;
42770;SDS011;28426;42.872;25.314;2022-11-04T14:27:57;17.63;;;8.45;;
42770;SDS011;28426;42.872;25.314;2022-11-04T14:30:31;19.02;;;9.25;;
42770;SDS011;28426;42.872;25.314;2022-11-04T14:33:25;16.95;;;8.77;;
42770;SDS011;28426;42.872;25.314;2022-11-04T14:38:57;19.27;;;8.97;;
42770;SDS011;28426;42.872;25.314;2022-11-04T14:41:47;19.35;;;8.95;;
42770;SDS011;28426;42.872;25.314;2022-11-04T14:44:22;18.52;;;8.90;;
42770;SDS011;28426;42.872;25.314;2022-11-04T14:47:06;18.23;;;8.85;;
42770;SDS011;28426;42.872;25.314;2022-11-04T14:49:48;17.92;;;9.05;;
42770;SDS011;28426;42.872;25.314;2022-11-04T14:52:22;16.88;;;8.70;;
42770;SDS011;28426;42.872;25.314;2022-11-04T14:54:56;21.55;;;9.02;;
42770;SDS011;28426;42.872;25.314;2022-11-04T14:57:37;22.95;;;10.77;;
42770;SDS011;28426;42.872;25.314;2022-11-04T15:03:11;20.77;;;9.60;;
42770;SDS011;28426;42.872;25.314;2022-11-04T15:06:06;17.52;;;8.63;;
42770;SDS011;28426;42.872;25.314;2022-11-04T15:08:42;22.88;;;9.50;;
42770;SDS011;28426;42.872;25.314;2022-11-04T15:11:15;27.27;;;11.05;;
42770;SDS011;28426;42.872;25.314;2022-11-04T15:14:15;22.38;;;9.98;;
42770;SDS011;28426;42.872;25.314;2022-11-04T15:16:49;18.85;;;10.13;;
42770;SDS011;28426;42.872;25.314;2022-11-04T15:19:24;21.98;;;10.30;;
42770;SDS011;28426;42.872;25.314;2022-11-04T15:22:01;21.95;;;10.13;;
42770;SDS011;28426;42.872;25.314;2022-11-04T15:24:34;18.27;;;9.63;;
42770;SDS011;28426;42.872;25.314;2022-11-04T15:27:05;17.38;;;9.50;;
42770;SDS011;28426;42.872;25.314;2022-11-04T15:29:36;19.25;;;9.98;;
42770;SDS011;28426;42.872;25.314;2022-11-04T15:32:14;18.77;;;10.00;;